createdAt,value
2023-05-16T00:01:51.380Z,15.90
2023-05-16T00:04:18.989Z,15.87
2023-05-16T00:06:46.368Z,15.82
2023-05-16T00:09:13.628Z,15.83
2023-05-16T00:11:41.129Z,15.79
2023-05-16T00:14:08.454Z,15.77
2023-05-16T00:16:36.665Z,15.73
2023-05-16T00:19:04.304Z,15.72
2023-05-16T00:21:31.821Z,15.63
2023-05-16T00:23:59.116Z,15.68
2023-05-16T00:26:26.737Z,15.61
2023-05-16T00:28:54.172Z,15.69
2023-05-16T00:31:21.874Z,15.62
2023-05-16T00:33:49.484Z,15.63
2023-05-16T00:36:16.717Z,15.64
2023-05-16T00:38:47.698Z,15.70
2023-05-16T00:41:17.408Z,15.72
2023-05-16T00:43:45.039Z,15.69
2023-05-16T00:46:12.393Z,15.75
2023-05-16T00:48:40.207Z,15.76
2023-05-16T00:51:09.251Z,15.79
2023-05-16T00:53:37.179Z,15.76
2023-05-16T00:56:06.503Z,15.78
2023-05-16T00:58:34.186Z,15.80
2023-05-16T01:01:03.580Z,15.81
2023-05-16T01:03:31.374Z,15.80
2023-05-16T01:06:00.290Z,15.77
2023-05-16T01:08:27.715Z,15.83
2023-05-16T01:11:16.027Z,15.85
2023-05-16T01:14:17.204Z,15.84
2023-05-16T01:17:40.124Z,15.80
2023-05-16T01:20:25.433Z,15.72
2023-05-16T01:23:36.253Z,15.74
2023-05-16T01:26:19.612Z,15.66
2023-05-16T01:28:48.348Z,15.72
2023-05-16T01:31:16.800Z,15.69
2023-05-16T01:33:45.020Z,15.67
2023-05-16T01:36:51.183Z,15.68
2023-05-16T01:39:37.270Z,15.64
2023-05-16T01:42:10.678Z,15.65
2023-05-16T01:45:09.701Z,15.63
2023-05-16T01:47:43.886Z,15.60
2023-05-16T01:50:17.871Z,15.62
2023-05-16T01:53:02.042Z,15.50
2023-05-16T01:55:41.477Z,15.59
2023-05-16T01:58:10.958Z,15.62
2023-05-16T02:00:39.775Z,15.64
2023-05-16T02:03:08.097Z,15.64
2023-05-16T02:05:35.877Z,15.57
2023-05-16T02:08:04.065Z,15.60
2023-05-16T02:10:31.650Z,15.57
2023-05-16T02:13:00.496Z,15.57
2023-05-16T02:15:28.317Z,15.56
2023-05-16T02:17:55.909Z,15.53
2023-05-16T02:20:23.252Z,15.50
2023-05-16T02:22:50.564Z,15.43
2023-05-16T02:25:18.051Z,15.48
2023-05-16T02:27:45.882Z,15.48
2023-05-16T02:30:13.624Z,15.44
2023-05-16T02:32:44.558Z,15.46
2023-05-16T02:35:12.280Z,15.48
2023-05-16T02:37:40.714Z,15.45
2023-05-16T02:40:09.456Z,15.41
2023-05-16T02:42:37.538Z,15.38
2023-05-16T02:45:05.621Z,15.36
2023-05-16T02:47:32.901Z,15.31
2023-05-16T02:50:00.385Z,15.29
2023-05-16T02:52:27.622Z,15.30
2023-05-16T02:55:10.124Z,15.28
2023-05-16T02:57:43.411Z,15.20
2023-05-16T03:00:14.195Z,15.27
2023-05-16T03:02:42.783Z,15.21
2023-05-16T03:05:10.850Z,15.26
2023-05-16T03:07:38.791Z,15.26
2023-05-16T03:10:07.148Z,15.26
2023-05-16T03:12:34.579Z,15.19
2023-05-16T03:15:02.218Z,15.15
2023-05-16T03:17:30.351Z,15.23
2023-05-16T03:19:57.935Z,15.19
2023-05-16T03:22:25.279Z,15.20
2023-05-16T03:24:52.503Z,15.13
2023-05-16T03:27:19.811Z,15.24
2023-05-16T03:29:47.045Z,15.26
2023-05-16T03:32:14.360Z,15.25
2023-05-16T03:34:41.644Z,15.28
2023-05-16T03:37:10.520Z,15.26
2023-05-16T03:39:37.781Z,15.30
2023-05-16T03:42:05.498Z,15.34
2023-05-16T03:44:32.988Z,15.37
2023-05-16T03:47:00.416Z,15.36
2023-05-16T03:49:28.095Z,15.37
2023-05-16T03:51:55.590Z,15.40
2023-05-16T03:54:23.041Z,15.36
2023-05-16T03:56:54.421Z,15.43
2023-05-16T03:59:22.083Z,15.44
2023-05-16T04:01:50.412Z,15.44
2023-05-16T04:04:17.897Z,15.28
2023-05-16T04:06:46.215Z,15.45
2023-05-16T04:09:14.189Z,15.46
2023-05-16T04:11:42.003Z,15.39
2023-05-16T04:14:09.400Z,15.41
2023-05-16T04:16:37.058Z,15.46
2023-05-16T04:19:04.388Z,15.53
2023-05-16T04:21:31.831Z,15.59
2023-05-16T04:23:59.692Z,15.66
2023-05-16T04:26:27.364Z,15.62
2023-05-16T04:28:55.512Z,15.73
2023-05-16T04:31:23.295Z,15.70
2023-05-16T04:33:50.713Z,15.81
2023-05-16T04:36:18.141Z,15.85
2023-05-16T04:38:47.074Z,15.80
2023-05-16T04:41:14.584Z,15.83
2023-05-16T04:44:17.994Z,15.92
2023-05-16T04:46:45.613Z,15.87
2023-05-16T04:49:14.158Z,16.03
2023-05-16T04:51:42.205Z,16.04
2023-05-16T04:54:10.450Z,16.08
2023-05-16T04:56:37.781Z,16.06
2023-05-16T04:59:05.189Z,16.11
2023-05-16T05:01:32.997Z,15.99
2023-05-16T05:04:00.450Z,16.12
2023-05-16T05:06:28.032Z,16.17
2023-05-16T05:08:55.900Z,16.08
2023-05-16T05:11:23.441Z,16.13
2023-05-16T05:13:52.746Z,16.13
2023-05-16T05:16:20.948Z,16.15
2023-05-16T05:18:48.438Z,16.19
2023-05-16T05:21:16.047Z,16.26
2023-05-16T05:23:43.263Z,16.24
2023-05-16T05:26:10.911Z,16.18
2023-05-16T05:28:42.144Z,16.28
2023-05-16T05:31:11.214Z,16.26
2023-05-16T05:33:39.225Z,16.33
2023-05-16T05:36:07.250Z,16.31
2023-05-16T05:38:36.861Z,16.46
2023-05-16T05:41:05.241Z,16.53
2023-05-16T05:43:33.688Z,16.54
2023-05-16T05:46:01.722Z,16.62
2023-05-16T05:48:34.806Z,16.78
2023-05-16T05:51:04.177Z,16.76
2023-05-16T05:53:35.138Z,16.92
2023-05-16T05:56:02.483Z,17.01
2023-05-16T05:58:30.354Z,17.15
2023-05-16T06:00:57.834Z,17.17
2023-05-16T06:03:25.797Z,17.21
2023-05-16T06:05:53.492Z,17.42
2023-05-16T06:08:21.205Z,17.44
2023-05-16T06:10:49.364Z,17.56
2023-05-16T06:13:16.885Z,17.62
2023-05-16T06:15:44.382Z,17.73
2023-05-16T06:18:12.069Z,17.81
2023-05-16T06:20:39.711Z,17.87
2023-05-16T06:23:07.148Z,17.95
2023-05-16T06:25:34.521Z,17.90
2023-05-16T06:28:02.168Z,18.14
2023-05-16T06:30:29.843Z,18.25
2023-05-16T06:32:57.415Z,18.39
2023-05-16T06:35:26.321Z,18.47
2023-05-16T06:37:53.933Z,18.66
2023-05-16T06:40:21.454Z,18.83
2023-05-16T06:42:48.887Z,18.89
2023-05-16T06:45:17.297Z,18.88
2023-05-16T06:47:47.762Z,19.00
2023-05-16T06:50:15.453Z,18.99
2023-05-16T06:52:42.884Z,19.13
2023-05-16T06:55:12.282Z,19.12
2023-05-16T06:57:40.472Z,18.93
2023-05-16T07:00:08.790Z,18.93
2023-05-16T07:02:36.853Z,19.08
2023-05-16T07:05:05.141Z,18.94
2023-05-16T07:07:33.924Z,19.13
2023-05-16T07:10:01.774Z,19.15
2023-05-16T07:12:29.503Z,19.29
2023-05-16T07:14:57.422Z,19.34
2023-05-16T07:17:25.112Z,19.42
2023-05-16T07:19:53.924Z,19.59
2023-05-16T07:22:21.597Z,19.60
2023-05-16T07:24:49.348Z,19.82
2023-05-16T07:27:16.850Z,19.78
2023-05-16T07:29:44.632Z,19.76
2023-05-16T07:32:12.493Z,19.83
2023-05-16T07:34:41.496Z,19.98
2023-05-16T07:37:18.922Z,20.05
2023-05-16T07:39:50.603Z,20.05
2023-05-16T07:42:18.573Z,20.21
2023-05-16T07:44:49.637Z,20.31
2023-05-16T07:47:16.973Z,20.28
2023-05-16T07:49:44.618Z,20.40
2023-05-16T07:52:12.489Z,20.48
2023-05-16T07:54:40.360Z,20.50
2023-05-16T07:57:08.075Z,20.61
2023-05-16T07:59:35.885Z,20.75
2023-05-16T08:02:05.108Z,20.98
2023-05-16T08:04:32.825Z,21.18
2023-05-16T08:07:00.337Z,21.28
2023-05-16T08:09:28.033Z,21.27
2023-05-16T08:11:56.076Z,21.26
2023-05-16T08:14:23.765Z,21.46
2023-05-16T08:16:51.162Z,21.57
2023-05-16T08:19:18.598Z,21.50
2023-05-16T08:21:46.694Z,21.64
2023-05-16T08:24:14.822Z,21.82
2023-05-16T08:26:43.528Z,21.97
2023-05-16T08:29:12.284Z,22.17
2023-05-16T08:31:39.907Z,22.22
2023-05-16T08:34:09.366Z,22.23
2023-05-16T08:36:37.769Z,22.17
2023-05-16T08:39:05.400Z,22.20
2023-05-16T08:41:33.234Z,22.29
2023-05-16T08:44:03.731Z,22.30
2023-05-16T08:46:33.308Z,22.28
2023-05-16T08:49:01.190Z,22.36
2023-05-16T08:51:35.361Z,22.44
2023-05-16T08:54:08.810Z,22.49
2023-05-16T08:56:38.354Z,22.56
2023-05-16T08:59:06.403Z,22.59
2023-05-16T09:01:34.887Z,22.63
2023-05-16T09:04:08.405Z,22.56
2023-05-16T09:06:38.563Z,22.60
2023-05-16T09:09:07.866Z,22.65
2023-05-16T09:11:37.091Z,22.79
2023-05-16T09:14:05.706Z,22.98
2023-05-16T09:16:33.843Z,23.05
2023-05-16T09:19:02.125Z,23.08
2023-05-16T09:21:33.195Z,23.06
2023-05-16T09:24:08.821Z,23.07
2023-05-16T09:26:39.338Z,23.11
2023-05-16T09:29:12.137Z,23.17
2023-05-16T09:31:40.264Z,23.20
2023-05-16T09:34:10.927Z,23.29
2023-05-16T09:36:38.660Z,23.41
2023-05-16T09:39:07.694Z,23.29
2023-05-16T09:41:36.315Z,23.30
2023-05-16T09:44:07.738Z,23.33
2023-05-16T09:46:37.492Z,23.40
2023-05-16T09:49:04.974Z,23.53
2023-05-16T09:51:33.189Z,23.53
2023-05-16T09:54:01.081Z,23.48
2023-05-16T09:56:29.712Z,23.49
2023-05-16T09:58:57.260Z,23.52
2023-05-16T10:01:25.924Z,23.53
2023-05-16T10:03:53.809Z,23.67
2023-05-16T10:06:22.500Z,23.75
2023-05-16T10:08:51.305Z,23.78
2023-05-16T10:11:19.657Z,23.65
2023-05-16T10:13:53.476Z,23.68
2023-05-16T10:16:23.489Z,23.57
2023-05-16T10:18:52.032Z,23.48
2023-05-16T10:21:23.083Z,23.37
2023-05-16T10:23:53.080Z,23.36
2023-05-16T10:26:22.169Z,23.27
2023-05-16T10:28:51.446Z,23.26
2023-05-16T10:31:22.810Z,23.34
2023-05-16T10:33:50.683Z,23.48
2023-05-16T10:36:18.860Z,23.60
2023-05-16T10:38:47.587Z,23.79
2023-05-16T10:41:15.546Z,23.84
2023-05-16T10:43:55.660Z,23.85
2023-05-16T10:46:24.091Z,23.86
2023-05-16T10:48:54.421Z,23.95
2023-05-16T10:51:23.211Z,23.90
2023-05-16T10:54:05.266Z,23.97
2023-05-16T10:56:34.896Z,23.87
2023-05-16T10:59:02.766Z,23.90
2023-05-16T11:01:35.417Z,23.94
2023-05-16T11:04:08.385Z,24.03
2023-05-16T11:06:42.193Z,24.06
2023-05-16T11:09:15.791Z,24.24
2023-05-16T11:11:52.354Z,24.41
2023-05-16T11:14:32.258Z,24.67
2023-05-16T11:17:20.971Z,24.89
2023-05-16T11:19:50.718Z,24.98
2023-05-16T11:22:28.037Z,25.03
2023-05-16T11:25:06.331Z,24.87
2023-05-16T11:27:47.642Z,24.75
2023-05-16T11:30:18.960Z,24.78
2023-05-16T11:32:48.637Z,24.89
2023-05-16T11:35:18.128Z,25.01
2023-05-16T11:37:47.675Z,25.11
2023-05-16T11:40:16.923Z,25.22
2023-05-16T11:42:48.343Z,25.46
2023-05-16T11:45:27.433Z,25.62
2023-05-16T11:48:03.791Z,25.74
2023-05-16T11:50:34.905Z,25.69
2023-05-16T11:53:02.652Z,25.59
2023-05-16T11:55:41.444Z,25.52
2023-05-16T11:58:11.902Z,25.37
2023-05-16T12:04:04.741Z,25.08
2023-05-16T12:06:32.874Z,25.02
2023-05-16T12:09:03.607Z,24.87
2023-05-16T12:11:31.326Z,24.80
2023-05-16T12:13:59.182Z,24.78
2023-05-16T12:16:26.897Z,24.79
2023-05-16T12:18:54.539Z,24.77
2023-05-16T12:21:22.278Z,24.86
2023-05-16T12:23:50.168Z,24.94
2023-05-16T12:26:30.707Z,24.77
2023-05-16T12:29:03.735Z,24.67
2023-05-16T12:31:36.441Z,24.56
2023-05-16T12:34:04.314Z,24.30
2023-05-16T12:36:37.304Z,24.30
2023-05-16T12:39:04.785Z,24.31
2023-05-16T12:41:40.971Z,24.25
2023-05-16T12:44:17.435Z,24.27
2023-05-16T12:46:51.533Z,24.31
2023-05-16T12:49:24.689Z,24.86
2023-05-16T12:51:56.790Z,25.56
2023-05-16T12:54:24.288Z,26.25
2023-05-16T12:56:51.711Z,26.71
2023-05-16T12:59:19.989Z,27.20
2023-05-16T13:01:47.639Z,27.55
2023-05-16T13:04:18.680Z,27.71
2023-05-16T13:06:58.395Z,28.05
2023-05-16T13:09:31.137Z,28.11
2023-05-16T13:12:00.411Z,27.89
2023-05-16T13:14:28.494Z,27.87
2023-05-16T13:16:56.274Z,27.79
2023-05-16T13:19:23.937Z,27.66
2023-05-16T13:21:51.372Z,27.62
2023-05-16T13:24:18.739Z,27.79
2023-05-16T13:26:46.582Z,28.23
2023-05-16T13:29:14.370Z,28.56
2023-05-16T13:31:41.802Z,28.80
2023-05-16T13:34:09.333Z,28.87
2023-05-16T13:36:52.161Z,28.91
2023-05-16T13:39:22.386Z,28.66
2023-05-16T13:41:50.331Z,28.42
2023-05-16T13:44:19.223Z,28.17
2023-05-16T13:46:46.694Z,27.72
2023-05-16T13:49:14.164Z,27.41
2023-05-16T13:51:41.765Z,26.80
2023-05-16T13:54:09.134Z,26.45
2023-05-16T13:56:36.541Z,26.29
2023-05-16T13:59:06.989Z,26.10
2023-05-16T14:01:36.306Z,25.81
2023-05-16T14:04:03.702Z,25.69
2023-05-16T14:06:31.544Z,25.71
2023-05-16T14:08:59.359Z,25.66
2023-05-16T14:11:29.241Z,25.55
2023-05-16T14:13:57.801Z,25.45
2023-05-16T14:16:25.968Z,25.21
2023-05-16T14:18:53.461Z,24.96
2023-05-16T14:21:20.824Z,24.84
2023-05-16T14:23:48.357Z,24.80
2023-05-16T14:26:16.095Z,24.64
2023-05-16T14:28:44.173Z,24.49
2023-05-16T14:31:11.824Z,24.38
2023-05-16T14:33:40.768Z,24.30
2023-05-16T14:36:08.708Z,24.12
2023-05-16T14:38:36.297Z,24.12
2023-05-16T14:41:03.749Z,24.07
2023-05-16T14:43:32.129Z,24.00
2023-05-16T14:45:59.815Z,23.93
2023-05-16T14:48:27.370Z,23.85
2023-05-16T14:50:55.123Z,23.76
2023-05-16T14:53:22.487Z,23.71
2023-05-16T14:55:49.968Z,23.68
2023-05-16T14:58:17.301Z,23.68
2023-05-16T15:00:44.886Z,23.63
2023-05-16T15:03:15.067Z,23.61
2023-05-16T15:05:45.494Z,23.63
2023-05-16T15:08:13.297Z,23.67
2023-05-16T15:10:40.721Z,23.63
2023-05-16T15:13:08.650Z,23.65
2023-05-16T15:15:38.356Z,23.54
2023-05-16T15:18:06.180Z,23.58
2023-05-16T15:20:33.969Z,23.62
2023-05-16T15:23:01.241Z,23.67
2023-05-16T15:25:29.379Z,23.66
2023-05-16T15:27:57.256Z,23.84
2023-05-16T15:30:25.359Z,23.91
2023-05-16T15:32:52.702Z,23.88
2023-05-16T15:35:20.473Z,23.85
2023-05-16T15:37:50.758Z,24.02
2023-05-16T15:40:20.531Z,24.02
2023-05-16T15:42:50.711Z,24.09
2023-05-16T15:45:18.169Z,24.23
2023-05-16T15:47:45.639Z,24.37
2023-05-16T15:50:14.086Z,24.46
2023-05-16T15:52:41.471Z,24.60
2023-05-16T15:55:11.759Z,24.65
2023-05-16T15:57:40.116Z,24.55
2023-05-16T16:00:08.643Z,24.36
2023-05-16T16:02:39.785Z,24.33
2023-05-16T16:05:08.165Z,24.15
2023-05-16T16:07:36.062Z,23.95
2023-05-16T16:10:03.519Z,23.91
2023-05-16T16:12:31.468Z,23.94
2023-05-16T16:14:59.141Z,23.73
2023-05-16T16:17:26.757Z,23.68
2023-05-16T16:19:54.549Z,23.64
2023-05-16T16:22:22.712Z,23.48
2023-05-16T16:24:50.540Z,23.39
2023-05-16T16:27:17.900Z,23.30
2023-05-16T16:29:47.093Z,23.20
2023-05-16T16:32:14.653Z,23.05
2023-05-16T16:34:41.935Z,22.96
2023-05-16T16:37:11.126Z,22.98
2023-05-16T16:42:06.772Z,22.90
2023-05-16T16:44:34.108Z,22.92
2023-05-16T16:47:01.960Z,22.83
2023-05-16T16:49:31.048Z,22.78
2023-05-16T16:51:58.500Z,22.75
2023-05-16T16:54:27.696Z,22.70
2023-05-16T16:56:55.693Z,22.55
2023-05-16T16:59:23.160Z,22.50
2023-05-16T17:01:50.515Z,22.51
2023-05-16T17:04:18.093Z,22.45
2023-05-16T17:06:46.541Z,22.39
2023-05-16T17:09:19.170Z,22.31
2023-05-16T17:11:46.574Z,22.24
2023-05-16T17:14:14.701Z,22.14
2023-05-16T17:16:42.469Z,22.02
2023-05-16T17:19:10.730Z,21.89
2023-05-16T17:21:40.142Z,21.84
2023-05-16T17:24:07.384Z,21.82
2023-05-16T17:26:35.428Z,21.66
2023-05-16T17:29:04.745Z,21.65
2023-05-16T17:31:32.320Z,21.59
2023-05-16T17:33:59.736Z,21.51
2023-05-16T17:36:27.115Z,21.45
2023-05-16T17:38:54.548Z,21.33
2023-05-16T17:41:22.156Z,21.32
2023-05-16T17:43:49.477Z,21.19
2023-05-16T17:46:17.155Z,21.18
2023-05-16T17:48:44.583Z,21.12
2023-05-16T17:51:11.902Z,21.03
2023-05-16T17:53:39.417Z,21.06
2023-05-16T17:56:07.333Z,21.04
2023-05-16T17:58:34.649Z,20.99
2023-05-16T18:01:05.281Z,20.95
2023-05-16T18:03:32.911Z,20.91
2023-05-16T18:06:00.350Z,20.87
2023-05-16T18:08:28.282Z,20.83
2023-05-16T18:10:55.596Z,20.80
2023-05-16T18:13:23.484Z,20.76
2023-05-16T18:15:51.025Z,20.68
2023-05-16T18:18:18.517Z,20.68
2023-05-16T18:20:46.750Z,20.63
2023-05-16T18:23:14.241Z,20.61
2023-05-16T18:25:41.737Z,20.56
2023-05-16T18:28:09.272Z,20.52
2023-05-16T18:30:38.123Z,20.50
2023-05-16T18:33:06.113Z,20.44
2023-05-16T18:35:33.410Z,20.44
2023-05-16T18:38:03.293Z,20.42
2023-05-16T18:40:30.971Z,20.35
2023-05-16T18:42:58.913Z,20.39
2023-05-16T18:45:26.569Z,20.36
2023-05-16T18:47:54.342Z,20.30
2023-05-16T18:50:22.141Z,20.26
2023-05-16T18:52:51.956Z,20.17
2023-05-16T18:55:19.465Z,20.15
2023-05-16T18:57:46.961Z,20.10
2023-05-16T19:00:14.646Z,20.06
2023-05-16T19:02:42.800Z,20.05
2023-05-16T19:05:25.039Z,19.99
2023-05-16T19:07:52.583Z,19.97
2023-05-16T19:10:20.356Z,19.93
2023-05-16T19:12:48.617Z,19.86
2023-05-16T19:15:16.526Z,19.87
2023-05-16T19:17:43.928Z,19.84
2023-05-16T19:20:11.458Z,19.79
2023-05-16T19:22:39.264Z,19.74
2023-05-16T19:25:07.266Z,19.70
2023-05-16T19:27:35.489Z,19.64
2023-05-16T19:30:03.265Z,19.57
2023-05-16T19:32:30.661Z,19.52
2023-05-16T19:34:57.993Z,19.51
2023-05-16T19:37:25.508Z,19.47
2023-05-16T19:39:52.851Z,19.44
2023-05-16T19:42:20.397Z,19.38
2023-05-16T19:44:47.969Z,19.31
2023-05-16T19:47:15.462Z,19.28
2023-05-16T19:49:43.206Z,19.23
2023-05-16T19:52:13.005Z,19.18
2023-05-16T19:54:41.289Z,19.16
2023-05-16T19:57:08.781Z,19.12
2023-05-16T19:59:36.108Z,19.07
2023-05-16T20:02:04.059Z,18.96
2023-05-16T20:04:31.562Z,18.93
2023-05-16T20:06:58.972Z,18.91
2023-05-16T20:09:28.053Z,18.90
2023-05-16T20:11:57.058Z,18.84
2023-05-16T20:14:24.675Z,18.85
2023-05-16T20:16:52.576Z,18.83
2023-05-16T20:19:20.210Z,18.82
2023-05-16T20:21:48.033Z,18.79
2023-05-16T20:24:15.605Z,18.79
2023-05-16T20:26:43.220Z,18.77
2023-05-16T20:29:10.911Z,18.74
2023-05-16T20:31:38.263Z,18.68
2023-05-16T20:34:05.826Z,18.69
2023-05-16T20:36:33.211Z,18.61
2023-05-16T20:39:00.605Z,18.61
2023-05-16T20:41:27.989Z,18.51
2023-05-16T20:43:55.332Z,18.53
2023-05-16T20:46:22.905Z,18.48
2023-05-16T20:48:50.564Z,18.44
2023-05-16T20:51:18.020Z,18.40
2023-05-16T20:53:45.435Z,18.38
2023-05-16T20:56:12.734Z,18.35
2023-05-16T20:58:41.736Z,18.32
2023-05-16T21:01:09.738Z,18.30
2023-05-16T21:03:37.164Z,18.28
2023-05-16T21:06:04.872Z,18.19
2023-05-16T21:08:32.395Z,18.22
2023-05-16T21:10:59.925Z,18.18
2023-05-16T21:13:28.370Z,18.11
2023-05-16T21:15:55.701Z,18.11
2023-05-16T21:18:23.154Z,18.06
2023-05-16T21:20:50.638Z,18.02
2023-05-16T21:23:17.893Z,18.00
2023-05-16T21:25:45.172Z,17.92
2023-05-16T21:28:12.620Z,17.82
2023-05-16T21:30:40.208Z,17.82
2023-05-16T21:33:07.582Z,17.79
2023-05-16T21:35:35.106Z,17.74
2023-05-16T21:38:02.484Z,17.69
2023-05-16T21:40:29.806Z,17.65
2023-05-16T21:42:57.118Z,17.62
2023-05-16T21:45:24.388Z,17.60
2023-05-16T21:47:51.943Z,17.52
2023-05-16T21:50:19.532Z,17.49
2023-05-16T21:52:46.930Z,17.45
2023-05-16T21:55:14.686Z,17.36
2023-05-16T21:57:42.098Z,17.37
2023-05-16T22:00:10.272Z,17.31
2023-05-16T22:02:37.612Z,17.22
2023-05-16T22:05:05.934Z,17.28
2023-05-16T22:07:33.828Z,17.26
2023-05-16T22:10:02.438Z,17.22
2023-05-16T22:12:29.793Z,17.19
2023-05-16T22:14:57.244Z,17.15
2023-05-16T22:17:24.860Z,17.12
2023-05-16T22:19:52.501Z,17.11
2023-05-16T22:22:19.899Z,17.08
2023-05-16T22:24:47.613Z,17.05
2023-05-16T22:27:15.092Z,17.03
2023-05-16T22:29:42.533Z,17.03
2023-05-16T22:32:10.367Z,16.98
2023-05-16T22:34:40.607Z,17.02
2023-05-16T22:37:10.784Z,17.01
2023-05-16T22:39:38.220Z,16.99
2023-05-16T22:42:06.190Z,16.95
2023-05-16T22:44:34.060Z,16.88
2023-05-16T22:47:01.322Z,16.89
2023-05-16T22:49:28.677Z,16.87
2023-05-16T22:51:55.988Z,16.82
2023-05-16T22:54:23.324Z,16.74
2023-05-16T22:56:51.179Z,16.76
2023-05-16T22:59:18.814Z,16.73
2023-05-16T23:01:46.317Z,16.69
2023-05-16T23:04:13.871Z,16.70
2023-05-16T23:06:41.552Z,16.61
2023-05-16T23:09:08.818Z,16.56
2023-05-16T23:11:36.095Z,16.51
2023-05-16T23:14:03.293Z,16.48
2023-05-16T23:16:30.561Z,16.46
2023-05-16T23:18:58.013Z,16.39
2023-05-16T23:21:25.680Z,16.31
2023-05-16T23:23:53.046Z,16.28
2023-05-16T23:26:20.361Z,16.23
2023-05-16T23:28:47.609Z,16.11
2023-05-16T23:31:15.077Z,16.02
2023-05-16T23:33:42.606Z,15.99
2023-05-16T23:36:10.193Z,15.94
2023-05-16T23:38:38.001Z,15.82
2023-05-16T23:41:05.410Z,15.85
2023-05-16T23:43:32.882Z,15.81
2023-05-16T23:46:00.473Z,15.78
2023-05-16T23:48:28.030Z,15.76
2023-05-16T23:50:55.574Z,15.71
2023-05-16T23:53:28.745Z,15.61
2023-05-16T23:55:56.249Z,15.63
2023-05-16T23:58:23.665Z,15.59
